Etusivu
METAR-TAF:

METAR-TAF

Lentoasemat :

Pittsburg, Kansas, Yhdysvallat

Leveyspiiri: 37-26-58N, Pituuspiiri: 094-43-52W, korkeus merenpinnasta: 290 m

Tämänhetkinen sää

Tämä raportti tehtiin 20 minuuttia sitten, kello 15.35 UTC
Tuuli 7 kn lounaasta
Lämpötila 29°C
Kosteus 58%
Ilmanpaine 1016 hPa
Näkyvyys: 16.1 km
selkeää

METAR: KPTS 141535Z AUTO 22007KT 10SM CLR 29/20 A3001 RMK AO2 T02920199 PWINO

Aika: 10:55 (15:55 UTC)


TAF: puuttuu

Säähavainnot ja -ennusteet yli 4000 lentoasemalta (METAR- ja TAF-raportit).

Käytössä olevat sääasemat on merkitty karttaan keltaisilla ja punaisilla pisteillä.

Aseta hiiri pisteen päälle nähdäksesi sääaseman nimen.

Klikkaa sitten nähdäksesi säähavainnot ja -ennusteet.

Kartan vaihtaminen: klikkaa mustalla rastilla varustettuja vihreitä pisteitä, niin voit zoomata sisään; viivalla varustettua vihreää pistettä, niin voit zoomata ulos tai vihreitä nuolia, niin pääset viereisille kartoille.


METAR-TAF: